createdAt,value
2022-09-15T00:01:46.854Z,4.10
2022-09-15T00:04:17.672Z,4.50
2022-09-15T00:06:48.304Z,4.50
2022-09-15T00:09:15.988Z,4.10
2022-09-15T00:11:45.043Z,4.30
2022-09-15T00:14:22.184Z,3.80
2022-09-15T00:19:20.142Z,3.70
2022-09-15T00:21:47.557Z,3.80
2022-09-15T00:24:14.774Z,4.00
2022-09-15T00:26:42.169Z,3.90
2022-09-15T00:29:10.684Z,3.70
2022-09-15T00:31:38.392Z,4.00
2022-09-15T00:34:07.820Z,4.20
2022-09-15T00:36:34.991Z,4.00
2022-09-15T00:39:02.448Z,4.00
2022-09-15T00:41:32.794Z,3.70
2022-09-15T00:44:05.332Z,3.50
2022-09-15T00:47:15.260Z,4.20
2022-09-15T00:49:47.159Z,3.80
2022-09-15T00:52:37.121Z,3.70
2022-09-15T00:55:20.752Z,4.10
2022-09-15T00:57:56.680Z,3.70
2022-09-15T01:00:28.894Z,4.00
2022-09-15T01:02:57.312Z,3.70
2022-09-15T01:05:41.681Z,3.80
2022-09-15T01:08:13.782Z,3.80
2022-09-15T01:10:41.101Z,4.00
2022-09-15T01:13:13.453Z,3.90
2022-09-15T01:15:58.982Z,4.00
2022-09-15T01:18:28.835Z,4.00
2022-09-15T01:21:01.332Z,3.80
2022-09-15T01:24:01.788Z,3.90
2022-09-15T01:26:37.223Z,4.00
2022-09-15T01:29:22.983Z,3.90
2022-09-15T01:32:38.755Z,3.90
2022-09-15T01:35:08.669Z,4.60
2022-09-15T01:37:41.947Z,3.80
2022-09-15T01:40:11.905Z,4.60
2022-09-15T01:42:42.125Z,4.70
2022-09-15T01:45:17.318Z,4.50
2022-09-15T01:47:47.792Z,4.60
2022-09-15T01:52:51.092Z,4.50
2022-09-15T01:55:28.309Z,4.30
2022-09-15T01:57:55.261Z,4.70
2022-09-15T02:00:22.120Z,4.50
2022-09-15T02:03:00.273Z,4.30
2022-09-15T02:05:41.103Z,4.40
2022-09-15T02:08:24.971Z,4.20
2022-09-15T02:11:03.965Z,4.20
2022-09-15T02:13:38.618Z,4.50
2022-09-15T02:16:14.752Z,4.10
2022-09-15T02:18:47.259Z,4.50
2022-09-15T02:21:36.826Z,5.40
2022-09-15T02:24:10.462Z,4.30
2022-09-15T02:26:39.905Z,4.20
2022-09-15T02:29:12.722Z,4.60
2022-09-15T02:31:41.806Z,4.50
2022-09-15T02:34:17.267Z,4.20
2022-09-15T02:36:45.174Z,4.10
2022-09-15T02:39:17.467Z,4.40
2022-09-15T02:41:44.998Z,4.30
2022-09-15T02:44:12.187Z,4.50
2022-09-15T02:46:39.209Z,4.60
2022-09-15T02:49:07.173Z,4.20
2022-09-15T02:51:34.154Z,4.50
2022-09-15T02:54:01.296Z,4.60
2022-09-15T02:56:28.236Z,4.60
2022-09-15T02:58:55.184Z,4.60
2022-09-15T03:01:34.023Z,4.80
2022-09-15T03:04:02.764Z,4.80
2022-09-15T03:06:33.975Z,4.60
2022-09-15T03:09:04.769Z,4.80
2022-09-15T03:11:33.341Z,5.20
2022-09-15T03:14:05.625Z,4.90
2022-09-15T03:16:34.344Z,4.60
2022-09-15T03:19:01.481Z,5.20
2022-09-15T03:21:29.832Z,4.60
2022-09-15T03:23:58.388Z,4.80
2022-09-15T03:26:25.577Z,4.70
2022-09-15T03:28:52.970Z,4.40
2022-09-15T03:31:20.351Z,5.00
2022-09-15T03:33:47.813Z,4.60
2022-09-15T03:36:15.372Z,4.40
2022-09-15T03:38:42.252Z,4.70
2022-09-15T03:41:11.527Z,4.90
2022-09-15T03:43:39.711Z,5.00
2022-09-15T03:46:08.313Z,4.90
2022-09-15T03:48:35.902Z,5.00
2022-09-15T03:51:05.270Z,4.80
2022-09-15T03:53:38.500Z,5.40
2022-09-15T03:56:08.489Z,5.00
2022-09-15T03:58:35.341Z,4.90
2022-09-15T04:01:02.480Z,4.90
2022-09-15T04:03:31.239Z,5.70
2022-09-15T04:05:59.248Z,4.20
2022-09-15T04:08:26.292Z,4.00
2022-09-15T04:10:54.549Z,3.90
2022-09-15T04:13:26.658Z,3.50
2022-09-15T04:16:04.578Z,3.00
2022-09-15T04:18:32.692Z,2.90
2022-09-15T04:21:01.448Z,3.80
2022-09-15T04:23:28.435Z,3.80
2022-09-15T04:25:59.837Z,3.90
2022-09-15T04:28:27.855Z,3.10
2022-09-15T04:31:12.489Z,3.10
2022-09-15T04:33:41.266Z,2.80
2022-09-15T04:36:12.611Z,2.80
2022-09-15T04:38:40.043Z,8.90
2022-09-15T04:41:06.875Z,8.10
2022-09-15T04:43:34.513Z,9.70
2022-09-15T04:46:10.766Z,12.00
2022-09-15T04:48:37.900Z,12.60
2022-09-15T04:51:07.377Z,11.70
2022-09-15T04:53:35.215Z,12.60
2022-09-15T04:56:07.687Z,9.00
2022-09-15T04:58:40.292Z,6.40
2022-09-15T05:01:13.169Z,6.90
2022-09-15T05:03:41.181Z,3.80
2022-09-15T05:06:12.782Z,3.30
2022-09-15T05:08:40.684Z,4.00
2022-09-15T05:11:11.322Z,3.50
2022-09-15T05:13:40.171Z,3.50
2022-09-15T05:16:14.848Z,11.20
2022-09-15T05:18:45.300Z,11.30
2022-09-15T05:21:22.595Z,9.50
2022-09-15T05:23:51.344Z,9.90
2022-09-15T05:26:21.367Z,9.10
2022-09-15T05:28:48.916Z,9.00
2022-09-15T05:31:20.567Z,11.20
2022-09-15T05:33:49.222Z,12.30
2022-09-15T05:36:18.085Z,18.60
2022-09-15T05:38:44.987Z,18.10
2022-09-15T05:41:18.050Z,13.80
2022-09-15T05:43:50.808Z,10.20
2022-09-15T05:46:18.819Z,7.30
2022-09-15T05:48:46.864Z,6.50
2022-09-15T05:51:43.677Z,5.30
2022-09-15T05:54:10.663Z,5.40
2022-09-15T05:56:37.571Z,4.80
2022-09-15T05:59:04.608Z,5.80
2022-09-15T06:01:31.683Z,13.40
2022-09-15T06:03:59.000Z,15.20
2022-09-15T06:06:26.817Z,14.60
2022-09-15T06:08:58.340Z,13.50
2022-09-15T06:11:31.519Z,13.30
2022-09-15T06:13:59.959Z,11.40
2022-09-15T06:16:27.123Z,12.00
2022-09-15T06:18:58.082Z,15.10
2022-09-15T06:21:36.000Z,15.00
2022-09-15T06:24:06.443Z,14.60
2022-09-15T06:26:41.309Z,13.10
2022-09-15T06:29:11.683Z,12.00
2022-09-15T06:31:39.134Z,9.40
2022-09-15T06:34:06.188Z,8.60
2022-09-15T06:36:33.084Z,8.10
2022-09-15T06:38:59.998Z,6.20
2022-09-15T06:41:31.110Z,6.30
2022-09-15T06:44:14.491Z,6.00
2022-09-15T06:46:41.402Z,9.30
2022-09-15T06:49:08.363Z,9.50
2022-09-15T06:51:35.808Z,7.80
2022-09-15T06:54:03.787Z,6.50
2022-09-15T06:56:35.850Z,5.70
2022-09-15T06:59:05.361Z,7.80
2022-09-15T07:01:37.200Z,6.80
2022-09-15T07:04:06.110Z,12.00
2022-09-15T07:09:16.191Z,12.40
2022-09-15T07:11:43.126Z,9.80
2022-09-15T07:14:11.755Z,5.10
2022-09-15T07:16:38.940Z,3.70
2022-09-15T07:19:06.176Z,5.20
2022-09-15T07:21:33.661Z,7.60
2022-09-15T07:24:15.203Z,6.80
2022-09-15T07:26:42.119Z,8.20
2022-09-15T07:29:09.189Z,8.40
2022-09-15T07:31:38.167Z,8.00
2022-09-15T07:34:06.244Z,6.80
2022-09-15T07:36:33.315Z,6.30
2022-09-15T07:41:42.729Z,6.90
2022-09-15T07:44:12.647Z,7.90
2022-09-15T07:46:39.540Z,8.10
2022-09-15T07:49:07.666Z,9.90
2022-09-15T07:51:34.689Z,10.40
2022-09-15T07:54:01.634Z,7.70
2022-09-15T07:56:28.795Z,6.60
2022-09-15T07:58:56.512Z,6.40
2022-09-15T08:01:24.186Z,6.00
2022-09-15T08:04:00.994Z,6.20
2022-09-15T08:06:28.705Z,4.90
2022-09-15T08:09:00.444Z,4.90
2022-09-15T08:11:28.932Z,5.50
2022-09-15T08:13:55.795Z,5.30
2022-09-15T08:16:24.548Z,5.40
2022-09-15T08:21:34.709Z,5.10
2022-09-15T08:24:01.998Z,5.30
2022-09-15T08:26:30.461Z,5.00
2022-09-15T08:28:57.990Z,5.20
2022-09-15T08:31:28.262Z,5.90
2022-09-15T08:33:56.812Z,5.20
2022-09-15T08:39:25.350Z,5.60
2022-09-15T08:44:47.161Z,3.80
2022-09-15T08:47:24.982Z,4.30
2022-09-15T08:50:22.776Z,4.00
2022-09-15T08:54:32.888Z,2.90
2022-09-15T08:56:37.004Z,3.60
2022-09-15T08:59:04.176Z,3.80
2022-09-15T09:02:17.726Z,4.10
2022-09-15T09:05:10.684Z,3.90
2022-09-15T09:07:53.461Z,2.60
2022-09-15T09:10:39.100Z,2.90
2022-09-15T09:13:23.712Z,3.20
2022-09-15T09:16:34.787Z,3.20
2022-09-15T09:19:10.380Z,2.20
2022-09-15T09:22:05.141Z,2.40
2022-09-15T09:24:48.690Z,2.30
2022-09-15T09:27:21.083Z,2.60
2022-09-15T09:29:51.568Z,1.90
2022-09-15T09:32:26.978Z,2.60
2022-09-15T09:35:34.107Z,2.70
2022-09-15T09:38:01.951Z,2.10
2022-09-15T09:40:32.135Z,1.70
2022-09-15T09:45:31.435Z,1.80
2022-09-15T09:48:21.564Z,2.20
2022-09-15T09:53:28.299Z,1.80
2022-09-15T09:56:16.738Z,1.80
2022-09-15T09:58:44.378Z,1.70
2022-09-15T10:01:14.356Z,1.80
2022-09-15T10:03:42.926Z,1.50
2022-09-15T10:06:24.310Z,1.60
2022-09-15T10:09:05.412Z,1.70
2022-09-15T10:11:43.560Z,1.10
2022-09-15T10:14:21.234Z,1.60
2022-09-15T10:17:09.008Z,1.70
2022-09-15T10:19:48.106Z,1.40
2022-09-15T10:22:31.151Z,1.20
2022-09-15T10:25:00.581Z,1.40
2022-09-15T10:27:27.734Z,1.20
2022-09-15T10:29:55.514Z,1.30
2022-09-15T10:32:31.194Z,1.40
2022-09-15T10:35:06.721Z,1.50
2022-09-15T10:37:45.221Z,1.50
2022-09-15T10:40:38.212Z,1.30
2022-09-15T10:43:35.189Z,1.60
2022-09-15T10:49:22.645Z,1.40
2022-09-15T10:52:19.348Z,1.50
2022-09-15T10:54:59.387Z,1.30
2022-09-15T11:00:12.176Z,1.30
2022-09-15T11:02:54.899Z,2.10
2022-09-15T11:05:27.891Z,1.70
2022-09-15T11:08:05.148Z,1.80
2022-09-15T11:10:57.349Z,1.50
2022-09-15T11:13:50.523Z,1.40
2022-09-15T11:16:38.059Z,1.40
2022-09-15T11:19:21.319Z,1.70
2022-09-15T11:22:08.928Z,1.60
2022-09-15T11:25:10.955Z,1.70
2022-09-15T11:28:02.036Z,1.40
2022-09-15T11:30:41.619Z,1.70
2022-09-15T11:36:42.691Z,1.80
2022-09-15T11:39:15.721Z,2.50
2022-09-15T11:41:56.739Z,2.00
2022-09-15T11:44:27.591Z,1.70
2022-09-15T11:47:29.939Z,2.00
2022-09-15T11:50:03.505Z,1.50
2022-09-15T11:52:44.001Z,1.80
2022-09-15T11:55:26.647Z,1.80
2022-09-15T11:57:59.392Z,1.40
2022-09-15T12:00:26.432Z,1.20
2022-09-15T12:03:13.429Z,1.20
2022-09-15T12:05:52.509Z,1.60
2022-09-15T12:08:46.969Z,1.60
2022-09-15T12:11:30.327Z,1.30
2022-09-15T12:13:59.305Z,1.40
2022-09-15T12:16:28.441Z,1.20
2022-09-15T12:19:11.421Z,1.30
2022-09-15T12:21:41.070Z,1.40
2022-09-15T12:29:27.101Z,1.90
2022-09-15T12:32:29.437Z,1.70
2022-09-15T12:34:58.236Z,1.60
2022-09-15T12:37:39.351Z,1.60
2022-09-15T12:40:38.914Z,2.20
2022-09-15T12:43:31.182Z,1.40
2022-09-15T12:46:01.091Z,1.30
2022-09-15T12:51:10.542Z,1.30
2022-09-15T12:53:52.263Z,1.50
2022-09-15T12:56:26.120Z,1.50
2022-09-15T12:58:53.921Z,1.70
2022-09-15T13:01:24.676Z,1.60
2022-09-15T13:03:54.777Z,1.60
2022-09-15T13:06:26.027Z,1.60
2022-09-15T13:09:02.318Z,1.40
2022-09-15T13:11:38.235Z,2.00
2022-09-15T13:14:11.513Z,2.70
2022-09-15T13:16:48.172Z,1.90
2022-09-15T13:19:41.168Z,1.70
2022-09-15T13:22:11.656Z,1.60
2022-09-15T13:27:36.789Z,1.90
2022-09-15T13:30:20.388Z,1.60
2022-09-15T13:33:06.237Z,1.70
2022-09-15T13:35:36.235Z,1.70
2022-09-15T13:38:25.220Z,1.60
2022-09-15T13:41:17.879Z,1.70
2022-09-15T13:44:03.885Z,1.50
2022-09-15T13:46:45.938Z,1.90
2022-09-15T13:49:25.109Z,2.30
2022-09-15T13:52:21.802Z,2.10
2022-09-15T13:55:20.329Z,1.70
2022-09-15T14:01:00.648Z,1.80
2022-09-15T14:03:33.384Z,1.70
2022-09-15T14:06:01.039Z,1.80
2022-09-15T14:08:32.785Z,1.50
2022-09-15T14:11:08.013Z,1.70
2022-09-15T14:13:40.605Z,1.50
2022-09-15T14:16:24.412Z,1.90
2022-09-15T14:18:53.627Z,2.00
2022-09-15T14:21:30.089Z,2.20
2022-09-15T14:24:02.883Z,1.90
2022-09-15T14:26:34.835Z,2.10
2022-09-15T14:29:06.671Z,1.70
2022-09-15T14:31:40.490Z,1.60
2022-09-15T14:34:20.686Z,1.70
2022-09-15T14:37:00.231Z,1.70
2022-09-15T14:39:27.157Z,1.80
2022-09-15T14:41:54.259Z,2.00
2022-09-15T14:47:34.519Z,1.60
2022-09-15T14:50:05.596Z,1.80
2022-09-15T14:52:38.757Z,1.60
2022-09-15T14:55:12.499Z,2.00
2022-09-15T14:57:45.812Z,1.70
2022-09-15T15:00:22.494Z,2.00
2022-09-15T15:03:12.528Z,1.90
2022-09-15T15:05:47.889Z,1.70
2022-09-15T15:08:32.286Z,1.30
2022-09-15T15:11:00.800Z,1.90
2022-09-15T15:13:29.350Z,1.60
2022-09-15T15:15:56.353Z,1.90
2022-09-15T15:18:35.623Z,1.90
2022-09-15T15:21:03.258Z,2.30
2022-09-15T15:23:31.657Z,1.60
2022-09-15T15:26:26.455Z,2.50
2022-09-15T15:28:53.270Z,2.20
2022-09-15T15:31:28.889Z,1.90
2022-09-15T15:34:06.324Z,2.00
2022-09-15T15:36:35.963Z,1.70
2022-09-15T15:39:06.304Z,1.90
2022-09-15T15:41:38.341Z,2.80
2022-09-15T15:44:26.617Z,1.80
2022-09-15T15:46:59.500Z,1.90
2022-09-15T15:49:29.256Z,1.90
2022-09-15T15:52:00.379Z,1.80
2022-09-15T15:54:27.982Z,1.90
2022-09-15T15:56:54.974Z,1.80
2022-09-15T15:59:22.244Z,1.60
2022-09-15T16:01:52.725Z,1.90
2022-09-15T16:06:47.452Z,1.70
2022-09-15T16:09:16.911Z,2.10
2022-09-15T16:11:44.123Z,2.70
2022-09-15T16:14:13.150Z,2.80
2022-09-15T16:16:40.299Z,2.80
2022-09-15T16:19:07.977Z,2.80
2022-09-15T16:21:38.297Z,2.90
2022-09-15T16:24:14.602Z,2.30
2022-09-15T16:26:42.493Z,2.10
2022-09-15T16:29:10.139Z,2.20
2022-09-15T16:31:38.030Z,2.30
2022-09-15T16:34:05.520Z,2.40
2022-09-15T16:36:35.702Z,2.20
2022-09-15T16:39:03.358Z,2.70
2022-09-15T16:41:30.273Z,2.40
2022-09-15T16:43:57.239Z,2.80
2022-09-15T16:46:24.701Z,2.50
2022-09-15T16:48:51.721Z,2.20
2022-09-15T16:51:29.865Z,2.30
2022-09-15T16:53:59.020Z,2.20
2022-09-15T16:56:41.058Z,2.30
2022-09-15T16:59:26.755Z,2.00
2022-09-15T17:01:54.992Z,2.40
2022-09-15T17:04:22.410Z,2.20
2022-09-15T17:06:52.259Z,2.50
2022-09-15T17:09:19.505Z,2.00
2022-09-15T17:11:47.519Z,2.00
2022-09-15T17:14:16.524Z,2.20
2022-09-15T17:16:46.859Z,2.10
2022-09-15T17:19:13.749Z,2.20
2022-09-15T17:21:43.221Z,2.70
2022-09-15T17:24:11.064Z,2.30
2022-09-15T17:26:37.956Z,2.30
2022-09-15T17:29:05.046Z,2.40
2022-09-15T17:31:32.293Z,2.40
2022-09-15T17:34:00.552Z,2.40
2022-09-15T17:36:27.710Z,2.30
2022-09-15T17:38:55.176Z,2.50
2022-09-15T17:41:22.322Z,2.30
2022-09-15T17:43:53.316Z,2.50
2022-09-15T17:46:22.734Z,2.20
2022-09-15T17:49:01.880Z,2.10
2022-09-15T17:51:29.131Z,2.70
2022-09-15T17:53:56.322Z,2.70
2022-09-15T17:56:24.067Z,2.70
2022-09-15T17:58:51.387Z,2.40
2022-09-15T18:01:18.531Z,3.40
2022-09-15T18:03:46.417Z,2.60
2022-09-15T18:06:14.212Z,2.50
2022-09-15T18:08:41.362Z,2.60
2022-09-15T18:11:12.582Z,3.10
2022-09-15T18:13:41.316Z,2.80
2022-09-15T18:16:14.853Z,2.20
2022-09-15T18:18:46.341Z,2.70
2022-09-15T18:21:35.282Z,2.90
2022-09-15T18:24:02.616Z,2.80
2022-09-15T18:29:01.918Z,2.60
2022-09-15T18:31:31.890Z,2.30
2022-09-15T18:36:40.018Z,2.60
2022-09-15T18:39:08.516Z,2.60
2022-09-15T18:41:37.582Z,2.20
2022-09-15T18:44:04.944Z,2.30
2022-09-15T18:46:31.939Z,2.50
2022-09-15T18:48:59.405Z,2.40
2022-09-15T18:51:34.829Z,2.30
2022-09-15T18:54:13.606Z,2.20
2022-09-15T18:56:40.937Z,2.00
2022-09-15T18:59:08.126Z,2.10
2022-09-15T19:01:35.185Z,2.10
2022-09-15T19:04:11.144Z,2.20
2022-09-15T19:06:38.592Z,2.10
2022-09-15T19:09:05.947Z,2.10
2022-09-15T19:11:33.136Z,2.40
2022-09-15T19:14:02.120Z,2.90
2022-09-15T19:16:46.808Z,2.50
2022-09-15T19:19:16.798Z,2.70
2022-09-15T19:21:43.939Z,2.50
2022-09-15T19:24:11.152Z,2.50
2022-09-15T19:26:38.234Z,2.60
2022-09-15T19:29:06.002Z,2.70
2022-09-15T19:31:33.033Z,2.50
2022-09-15T19:34:00.217Z,2.80
2022-09-15T19:36:28.697Z,2.90
2022-09-15T19:38:59.177Z,2.50
2022-09-15T19:41:36.953Z,2.40
2022-09-15T19:44:29.437Z,2.60
2022-09-15T19:46:56.604Z,2.60
2022-09-15T19:49:25.588Z,3.00
2022-09-15T19:51:56.464Z,3.00
2022-09-15T19:54:26.579Z,3.00
2022-09-15T19:56:53.699Z,2.30
2022-09-15T19:59:21.539Z,2.70
2022-09-15T20:01:48.846Z,2.50
2022-09-15T20:04:16.023Z,2.70
2022-09-15T20:06:43.268Z,2.80
2022-09-15T20:09:10.916Z,2.30
2022-09-15T20:11:39.459Z,3.30
2022-09-15T20:14:06.707Z,2.90
2022-09-15T20:16:34.401Z,2.60
2022-09-15T20:19:05.662Z,2.90
2022-09-15T20:21:50.190Z,3.00
2022-09-15T20:24:20.428Z,2.70
2022-09-15T20:26:48.025Z,2.90
2022-09-15T20:29:22.991Z,2.80
2022-09-15T20:31:50.970Z,2.70
2022-09-15T20:34:40.741Z,3.10
2022-09-15T20:37:12.148Z,3.00
2022-09-15T20:39:40.627Z,2.80
2022-09-15T20:42:36.354Z,2.70
2022-09-15T20:45:24.566Z,3.00
2022-09-15T20:47:53.940Z,3.10
2022-09-15T20:53:04.568Z,3.00
2022-09-15T20:55:31.563Z,2.80
2022-09-15T20:58:05.095Z,2.90
2022-09-15T21:00:34.830Z,3.00
2022-09-15T21:03:06.997Z,3.10
2022-09-15T21:05:35.482Z,4.60
2022-09-15T21:08:03.721Z,4.50
2022-09-15T21:10:31.651Z,4.10
2022-09-15T21:13:12.375Z,3.90
2022-09-15T21:15:42.100Z,4.50
2022-09-15T21:18:09.922Z,4.10
2022-09-15T21:21:19.173Z,3.70
2022-09-15T21:23:55.076Z,3.60
2022-09-15T21:26:31.221Z,3.50
2022-09-15T21:28:58.436Z,3.10
2022-09-15T21:31:30.262Z,3.20
2022-09-15T21:33:58.332Z,2.80
2022-09-15T21:36:30.426Z,3.30
2022-09-15T21:38:59.018Z,2.90
2022-09-15T21:41:29.346Z,3.10
2022-09-15T21:43:58.440Z,2.50
2022-09-15T21:46:28.421Z,3.10
2022-09-15T21:48:57.537Z,2.40
2022-09-15T21:51:26.670Z,2.80
2022-09-15T21:53:55.806Z,2.90
2022-09-15T21:56:27.939Z,3.00
2022-09-15T21:58:55.106Z,3.30
2022-09-15T22:01:31.350Z,3.30
2022-09-15T22:04:02.008Z,3.20
2022-09-15T22:06:34.706Z,2.60
2022-09-15T22:09:08.359Z,2.70
2022-09-15T22:11:38.767Z,2.50
2022-09-15T22:14:09.939Z,3.30
2022-09-15T22:16:42.252Z,2.90
2022-09-15T22:19:11.438Z,2.60
2022-09-15T22:21:41.110Z,3.00
2022-09-15T22:24:20.929Z,2.90
2022-09-15T22:29:31.262Z,2.90
2022-09-15T22:31:59.560Z,2.90
2022-09-15T22:34:30.950Z,3.10
2022-09-15T22:37:00.339Z,2.80
2022-09-15T22:39:44.165Z,2.60
2022-09-15T22:42:14.552Z,2.90
2022-09-15T22:44:42.052Z,3.00
2022-09-15T22:47:10.713Z,3.20
2022-09-15T22:49:37.972Z,3.00
2022-09-15T22:52:05.105Z,2.90
2022-09-15T22:54:32.721Z,3.40
2022-09-15T22:56:59.833Z,2.90
2022-09-15T22:59:30.582Z,2.80
2022-09-15T23:01:57.757Z,3.00
2022-09-15T23:04:25.158Z,2.70
2022-09-15T23:06:52.102Z,3.10
2022-09-15T23:09:22.292Z,2.80
2022-09-15T23:11:49.964Z,3.10
2022-09-15T23:14:17.557Z,3.40
2022-09-15T23:16:44.790Z,3.20
2022-09-15T23:19:13.932Z,2.90
2022-09-15T23:21:41.553Z,3.40
2022-09-15T23:24:12.864Z,3.10
2022-09-15T23:26:40.193Z,3.20
2022-09-15T23:29:17.112Z,3.40
2022-09-15T23:31:52.091Z,3.20
2022-09-15T23:34:22.420Z,2.90
2022-09-15T23:36:50.564Z,2.90
2022-09-15T23:39:20.655Z,2.90
2022-09-15T23:41:48.778Z,3.20
2022-09-15T23:44:16.617Z,3.00
2022-09-15T23:46:49.216Z,3.10
2022-09-15T23:49:18.991Z,2.70
2022-09-15T23:51:51.079Z,2.40
2022-09-15T23:54:30.602Z,2.50
2022-09-15T23:56:57.677Z,2.80
2022-09-15T23:59:25.477Z,2.50
